Time;durP1;ratioP1;P1;durP2;ratioP2;P2;SDS_P1;SDS_P2;PMS_P1;PMS_P2;Temp;Humidity;BMP_temperature;BMP_pressure;BME280_temperature;BME280_humidity;BME280_pressure;Samples;Min_cycle;Max_cycle;Signal;HPM_P1;HPM_P2
2024/03/27 00:00:38;;;;;;;7.30;4.60;;;;;;;6.30;100.00;96542.97;5011915;28;20053;-64
2024/03/27 00:03:04;;;;;;;6.82;3.92;;;;;;;6.28;100.00;96552.66;5005511;28;20034;-63
2024/03/27 00:05:34;;;;;;;8.15;3.83;;;;;;;6.29;100.00;96543.94;5023080;28;20104;-64
2024/03/27 00:07:59;;;;;;;8.27;4.47;;;;;;;6.29;100.00;96543.13;4996634;28;20034;-65
2024/03/27 00:10:25;;;;;;;6.93;4.18;;;;;;;6.24;100.00;96538.50;5009413;28;20111;-60
2024/03/27 00:12:51;;;;;;;7.32;4.35;;;;;;;6.26;100.00;96541.72;4981595;28;20503;-63
2024/03/27 00:15:16;;;;;;;6.72;3.70;;;;;;;6.33;100.00;96544.41;4976971;28;20026;-63
2024/03/27 00:17:42;;;;;;;6.95;4.28;;;;;;;6.33;100.00;96540.06;5007627;28;20028;-61
2024/03/27 00:20:08;;;;;;;6.50;4.00;;;;;;;6.34;100.00;96540.88;5015552;28;20042;-61
2024/03/27 00:22:33;;;;;;;6.82;3.70;;;;;;;6.41;100.00;96541.00;4996841;28;20026;-62
2024/03/27 00:25:06;;;;;;;6.10;3.83;;;;;;;6.40;100.00;96537.59;5006178;28;20034;-63
2024/03/27 00:27:32;;;;;;;6.53;3.67;;;;;;;6.35;100.00;96532.13;4989078;28;20826;-63
2024/03/27 00:30:00;;;;;;;8.05;3.95;;;;;;;6.40;100.00;96535.03;4980375;28;20467;-62
2024/03/27 00:32:25;;;;;;;5.85;3.25;;;;;;;6.34;100.00;96517.63;4996195;28;20022;-61
2024/03/27 00:34:51;;;;;;;5.90;2.92;;;;;;;6.37;100.00;96517.31;4984934;28;20040;-65
2024/03/27 00:37:19;;;;;;;5.43;2.90;;;;;;;6.35;100.00;96520.06;4990924;28;20079;-61
2024/03/27 00:39:44;;;;;;;5.53;2.95;;;;;;;6.32;100.00;96522.16;5004044;28;20033;-62
2024/03/27 00:42:12;;;;;;;7.22;2.55;;;;;;;6.33;100.00;96509.09;4995381;28;20022;-62
2024/03/27 00:44:37;;;;;;;5.75;2.78;;;;;;;6.26;100.00;96499.59;5003369;28;20033;-59
2024/03/27 00:47:03;;;;;;;4.72;2.50;;;;;;;6.22;100.00;96503.50;4991655;28;20026;-60
2024/03/27 00:49:28;;;;;;;5.47;2.58;;;;;;;6.00;100.00;96459.41;4976495;28;20516;-63
2024/03/27 00:51:53;;;;;;;5.13;2.70;;;;;;;6.15;100.00;96478.38;4994000;28;20049;-64
2024/03/27 00:54:20;;;;;;;5.22;2.70;;;;;;;6.31;100.00;96498.13;4994402;28;20456;-63
2024/03/27 00:56:48;;;;;;;5.47;2.72;;;;;;;6.21;100.00;96494.16;5006600;28;20068;-62
2024/03/27 00:59:16;;;;;;;4.28;2.25;;;;;;;6.23;100.00;96489.63;5006188;28;20034;-64
2024/03/27 01:01:42;;;;;;;5.15;2.60;;;;;;;6.31;100.00;96482.63;4976182;28;20046;-65
2024/03/27 01:04:07;;;;;;;5.28;2.53;;;;;;;6.37;100.00;96488.09;4990834;28;20030;-64
2024/03/27 01:06:33;;;;;;;4.82;2.30;;;;;;;6.31;100.00;96487.00;4993914;28;20030;-63
2024/03/27 01:08:58;;;;;;;4.95;2.47;;;;;;;6.31;100.00;96490.38;5027181;28;20088;-62
2024/03/27 01:11:26;;;;;;;4.95;2.40;;;;;;;6.33;100.00;96493.59;4989393;28;20042;-65
2024/03/27 01:13:54;;;;;;;5.13;2.20;;;;;;;6.00;100.00;96433.59;4973259;28;20033;-63
2024/03/27 01:16:19;;;;;;;4.53;2.30;;;;;;;6.04;100.00;96440.06;5009334;28;20386;-66
2024/03/27 01:18:45;;;;;;;5.47;2.65;;;;;;;6.37;100.00;96485.50;4993889;28;20034;-63
2024/03/27 01:21:11;;;;;;;5.97;2.35;;;;;;;6.34;100.00;96477.13;4991423;28;20570;-62
2024/03/27 01:23:37;;;;;;;4.55;2.22;;;;;;;6.40;100.00;96477.44;4991170;28;20036;-62
2024/03/27 01:26:05;;;;;;;4.65;2.13;;;;;;;6.30;100.00;96475.88;4990895;28;20053;-62
2024/03/27 01:28:33;;;;;;;4.72;2.20;;;;;;;6.34;100.00;96487.47;4987484;28;20517;-63
2024/03/27 01:31:01;;;;;;;4.88;1.90;;;;;;;6.41;100.00;96482.44;5004531;28;20029;-63
2024/03/27 01:33:28;;;;;;;6.22;2.20;;;;;;;6.42;100.00;96473.69;4996745;28;20037;-66
2024/03/27 01:35:56;;;;;;;4.80;1.92;;;;;;;6.27;100.00;96445.22;4994551;28;20084;-62
2024/03/27 01:38:21;;;;;;;4.00;1.70;;;;;;;6.26;100.00;96455.72;4995146;28;20037;-64
2024/03/27 01:40:50;;;;;;;4.47;2.10;;;;;;;6.18;100.00;96454.00;4998385;28;20104;-62
2024/03/27 01:43:17;;;;;;;8.05;2.95;;;;;;;6.17;100.00;96447.25;5011073;28;20026;-62
2024/03/27 01:45:45;;;;;;;2.75;1.05;;;;;;;6.10;100.00;96443.72;4989426;28;20062;-63
2024/03/27 01:48:11;;;;;;;4.38;1.60;;;;;;;6.16;100.00;96443.03;4989417;28;20943;-62
2024/03/27 01:50:39;;;;;;;3.97;1.60;;;;;;;6.20;100.00;96441.72;4991509;28;20029;-64
2024/03/27 01:53:08;;;;;;;3.70;1.45;;;;;;;6.12;100.00;96437.41;4977316;28;20513;-63
2024/03/27 01:55:33;;;;;;;4.90;1.83;;;;;;;6.25;100.00;96441.22;4985951;28;20560;-61
2024/03/27 01:57:58;;;;;;;5.53;1.83;;;;;;;6.00;100.00;96404.44;4998531;28;20041;-61
2024/03/27 02:00:26;;;;;;;3.90;1.38;;;;;;;6.31;100.00;96428.41;4989984;28;20522;-62
2024/03/27 02:02:52;;;;;;;3.63;1.50;;;;;;;6.09;100.00;96391.31;5004480;28;20033;-63
2024/03/27 02:05:18;;;;;;;4.10;1.60;;;;;;;6.29;100.00;96432.97;4992481;28;20771;-61
2024/03/27 02:07:44;;;;;;;4.30;1.75;;;;;;;6.00;100.00;96387.16;4994498;28;20441;-63
2024/03/27 02:10:10;;;;;;;5.43;1.52;;;;;;;6.29;100.00;96416.69;4993089;28;20224;-63
2024/03/27 02:12:38;;;;;;;3.83;1.40;;;;;;;5.92;100.00;96362.19;4995908;28;20105;-65
2024/03/27 02:15:07;;;;;;;3.20;1.37;;;;;;;6.09;100.00;96396.47;4976475;28;20030;-61
2024/03/27 02:17:33;;;;;;;4.70;1.65;;;;;;;6.14;100.00;96401.91;4972569;28;20087;-62
2024/03/27 02:20:01;;;;;;;4.10;1.70;;;;;;;6.16;100.00;96383.69;4978061;28;20653;-62
2024/03/27 02:22:28;;;;;;;4.63;1.50;;;;;;;6.18;100.00;96371.41;5008813;28;20022;-63
2024/03/27 02:24:56;;;;;;;4.80;1.83;;;;;;;6.25;100.00;96374.91;4992178;28;20037;-63
2024/03/27 02:27:22;;;;;;;4.20;1.80;;;;;;;6.13;100.00;96363.38;4990044;28;20034;-62
2024/03/27 02:29:49;;;;;;;3.92;1.73;;;;;;;6.14;100.00;96355.47;4979839;28;20025;-62
2024/03/27 02:32:15;;;;;;;3.88;1.40;;;;;;;6.15;100.00;96354.50;4987543;28;20038;-64
2024/03/27 02:34:40;;;;;;;3.83;1.63;;;;;;;6.00;100.00;96339.94;4986504;28;20022;-63
2024/03/27 02:37:08;;;;;;;4.00;1.88;;;;;;;5.95;100.00;96349.00;5006561;28;20045;-65
2024/03/27 02:39:34;;;;;;;4.10;1.77;;;;;;;5.94;100.00;96338.81;5010162;28;20701;-62
2024/03/27 02:42:04;;;;;;;3.22;1.17;;;;;;;5.91;100.00;96327.06;4996952;28;20044;-64
2024/03/27 02:44:29;;;;;;;4.88;1.60;;;;;;;5.89;100.00;96331.56;4992413;28;20040;-63
2024/03/27 02:46:55;;;;;;;3.70;1.70;;;;;;;5.88;100.00;96318.88;4994534;28;20033;-63
2024/03/27 02:49:20;;;;;;;3.30;1.20;;;;;;;5.92;100.00;96304.66;4990353;28;20381;-64
2024/03/27 02:51:45;;;;;;;3.80;1.55;;;;;;;5.59;100.00;96251.50;4999643;28;20034;-63
2024/03/27 02:54:11;;;;;;;4.30;1.60;;;;;;;5.89;100.00;96308.38;5028954;28;20057;-64
2024/03/27 02:56:39;;;;;;;3.45;1.33;;;;;;;5.92;100.00;96302.06;4997150;28;20124;-64
2024/03/27 02:59:04;;;;;;;4.65;1.65;;;;;;;6.00;100.00;96293.50;4979928;28;20661;-61
2024/03/27 03:01:32;;;;;;;4.72;2.05;;;;;;;6.06;100.00;96295.38;5020223;28;20062;-65
2024/03/27 03:03:57;;;;;;;4.47;1.90;;;;;;;6.02;100.00;96274.28;4975320;28;20036;-61
2024/03/27 03:06:22;;;;;;;4.68;1.55;;;;;;;5.96;100.00;96268.03;5001314;28;20025;-63
2024/03/27 03:08:48;;;;;;;4.07;1.73;;;;;;;5.97;100.00;96261.91;4995555;28;20043;-62
2024/03/27 03:11:13;;;;;;;4.03;1.70;;;;;;;5.99;100.00;96255.78;5000375;28;20150;-65
2024/03/27 03:13:39;;;;;;;3.80;1.40;;;;;;;6.09;100.00;96264.09;4998083;28;20048;-65
2024/03/27 03:16:07;;;;;;;3.83;1.42;;;;;;;5.64;100.00;96207.19;4981708;28;20038;-62
2024/03/27 03:18:32;;;;;;;3.80;1.45;;;;;;;5.84;100.00;96233.31;5015155;28;20148;-65
2024/03/27 03:21:07;;;;;;;3.60;1.60;;;;;;;5.90;100.00;96240.34;4978443;28;20400;-63
2024/03/27 03:23:33;;;;;;;3.72;1.38;;;;;;;5.85;100.00;96227.16;4990473;28;20037;-62
2024/03/27 03:26:02;;;;;;;3.30;1.20;;;;;;;5.82;100.00;96216.38;4978646;28;20034;-60
2024/03/27 03:28:27;;;;;;;2.80;1.10;;;;;;;5.73;100.00;96226.78;4988636;28;20532;-64
2024/03/27 03:30:53;;;;;;;3.78;1.20;;;;;;;5.56;100.00;96200.28;4996702;28;20124;-64
2024/03/27 03:33:20;;;;;;;2.45;1.00;;;;;;;5.69;100.00;96209.22;4977362;28;20489;-68
2024/03/27 03:35:56;;;;;;;3.38;1.17;;;;;;;5.81;100.00;96225.13;4980502;28;20038;-67
2024/03/27 03:38:25;;;;;;;3.13;1.10;;;;;;;5.75;100.00;96224.81;4980877;28;20033;-64
2024/03/27 03:40:56;;;;;;;3.85;1.02;;;;;;;5.73;100.00;96202.75;4993429;28;20044;-66
2024/03/27 03:43:22;;;;;;;3.25;1.20;;;;;;;5.50;100.00;96164.91;5036566;28;20033;-64
2024/03/27 03:45:47;;;;;;;2.63;0.90;;;;;;;5.85;100.00;96213.47;5010490;28;20542;-63
2024/03/27 03:48:13;;;;;;;2.67;0.95;;;;;;;5.81;100.00;96201.91;4989174;28;20464;-65
2024/03/27 03:50:38;;;;;;;2.70;0.98;;;;;;;5.87;100.00;96214.09;5011343;28;20412;-65
2024/03/27 03:53:04;;;;;;;3.10;1.02;;;;;;;5.82;100.00;96230.06;4986304;28;20029;-65
2024/03/27 03:55:29;;;;;;;3.70;1.00;;;;;;;5.89;100.00;96215.50;5027737;28;20062;-62
2024/03/27 03:57:55;;;;;;;2.47;0.80;;;;;;;5.78;100.00;96193.50;4994285;28;20025;-61
2024/03/27 04:00:21;;;;;;;3.20;0.95;;;;;;;5.89;100.00;96209.56;4996796;28;20671;-62
2024/03/27 04:02:47;;;;;;;3.05;1.10;;;;;;;5.61;100.00;96184.31;4976428;28;20030;-65
2024/03/27 04:05:15;;;;;;;4.50;1.20;;;;;;;5.78;100.00;96200.47;5010488;28;20030;-62
2024/03/27 04:07:41;;;;;;;3.60;1.30;;;;;;;5.74;100.00;96189.69;4994785;28;20101;-62
2024/03/27 04:10:07;;;;;;;4.50;1.00;;;;;;;5.81;100.00;96189.00;4996020;28;20030;-62
2024/03/27 04:12:32;;;;;;;3.03;0.90;;;;;;;5.73;100.00;96182.94;4994959;28;20026;-61
2024/03/27 04:14:58;;;;;;;5.97;1.02;;;;;;;5.54;100.00;96144.72;4988552;28;20034;-62
2024/03/27 04:17:24;;;;;;;3.10;1.00;;;;;;;5.73;100.00;96176.97;4990609;28;20034;-62
2024/03/27 04:19:50;;;;;;;3.17;0.90;;;;;;;5.81;100.00;96170.97;5003470;28;20052;-62
2024/03/27 04:22:16;;;;;;;2.67;0.85;;;;;;;5.72;100.00;96163.28;4981386;28;20033;-61
2024/03/27 04:24:45;;;;;;;2.33;0.77;;;;;;;5.80;100.00;96161.59;4997411;28;20030;-60
2024/03/27 04:27:11;;;;;;;3.27;0.80;;;;;;;5.82;100.00;96157.88;4992729;28;20109;-64
2024/03/27 04:29:37;;;;;;;2.78;0.90;;;;;;;5.89;100.00;96151.03;5008313;28;20628;-65
2024/03/27 04:32:04;;;;;;;2.83;0.73;;;;;;;5.62;100.00;96112.94;4993322;28;20021;-62
2024/03/27 04:34:32;;;;;;;1.55;0.60;;;;;;;5.83;100.00;96138.06;5025566;28;20029;-62
2024/03/27 04:36:58;;;;;;;2.05;0.80;;;;;;;5.84;100.00;96137.88;4993970;28;20030;-62
2024/03/27 04:39:23;;;;;;;2.45;0.77;;;;;;;5.78;100.00;96136.78;4998725;28;20138;-65
2024/03/27 04:41:50;;;;;;;1.92;0.70;;;;;;;5.83;100.00;96127.75;4992781;28;20038;-63
2024/03/27 04:44:16;;;;;;;1.85;0.70;;;;;;;5.78;100.00;96129.03;5008798;28;20030;-65
2024/03/27 04:46:41;;;;;;;4.53;0.70;;;;;;;5.75;100.00;96126.84;4993789;28;20072;-63
2024/03/27 04:49:09;;;;;;;2.85;0.80;;;;;;;5.83;100.00;96125.97;4994265;28;20393;-62
2024/03/27 04:51:37;;;;;;;2.80;0.70;;;;;;;5.82;100.00;96116.59;4997320;28;20120;-65
2024/03/27 04:54:04;;;;;;;2.17;0.73;;;;;;;5.74;100.00;96114.13;5011408;28;20068;-61
2024/03/27 04:56:30;;;;;;;1.92;0.60;;;;;;;5.75;100.00;96108.00;4980185;28;20038;-64
2024/03/27 04:58:55;;;;;;;2.72;0.70;;;;;;;5.65;100.00;96094.53;5033220;28;20099;-61
2024/03/27 05:01:21;;;;;;;1.98;0.80;;;;;;;5.68;100.00;96105.31;4991797;28;20143;-64
2024/03/27 05:03:49;;;;;;;2.25;0.70;;;;;;;5.66;100.00;96112.41;5000087;28;20491;-65
2024/03/27 05:06:17;;;;;;;2.67;0.70;;;;;;;5.66;100.00;96132.22;5008131;28;20141;-63
2024/03/27 05:08:47;;;;;;;2.95;0.70;;;;;;;5.75;100.00;96138.94;4991177;28;20103;-62
2024/03/27 05:11:15;;;;;;;2.90;0.82;;;;;;;5.73;100.00;96138.28;4991503;28;20028;-61
2024/03/27 05:13:40;;;;;;;2.30;0.77;;;;;;;5.69;100.00;96145.56;4998973;28;20414;-60
2024/03/27 05:16:09;;;;;;;2.90;0.70;;;;;;;5.70;100.00;96136.88;4994483;28;20473;-64
2024/03/27 05:18:34;;;;;;;3.45;0.82;;;;;;;5.70;100.00;96134.28;5012609;28;20072;-64
2024/03/27 05:20:59;;;;;;;2.88;0.90;;;;;;;5.77;100.00;96132.63;5013210;28;20037;-63
2024/03/27 05:23:27;;;;;;;2.60;0.52;;;;;;;5.72;100.00;96128.97;5010659;28;20563;-63
2024/03/27 05:25:55;;;;;;;2.15;0.50;;;;;;;5.82;100.00;96129.50;4982566;28;20030;-65
2024/03/27 05:28:21;;;;;;;0.70;0.35;;;;;;;5.29;100.00;96048.78;4987091;28;20094;-61
2024/03/27 05:30:51;;;;;;;0.57;0.28;;;;;;;5.93;100.00;96123.94;4979644;28;20025;-60
2024/03/27 05:33:19;;;;;;;0.90;0.30;;;;;;;5.87;100.00;96111.72;4995172;28;20520;-59
2024/03/27 05:35:46;;;;;;;0.50;0.28;;;;;;;5.85;100.00;96098.22;5011709;28;20034;-60
2024/03/27 05:38:15;;;;;;;0.70;0.30;;;;;;;5.88;100.00;96104.81;4978639;28;20037;-63
2024/03/27 05:40:41;;;;;;;0.20;0.17;;;;;;;5.77;100.00;96088.78;4996277;28;20108;-63
2024/03/27 05:43:09;;;;;;;1.27;0.40;;;;;;;5.82;100.00;96102.91;5005668;28;20050;-60
2024/03/27 05:45:35;;;;;;;1.15;0.40;;;;;;;5.88;100.00;96095.28;4994302;28;20099;-60
2024/03/27 05:48:03;;;;;;;1.50;0.38;;;;;;;5.86;100.00;96094.66;4994593;28;20025;-61
2024/03/27 05:50:28;;;;;;;0.85;0.30;;;;;;;5.84;100.00;96083.72;5007860;28;20108;-61
2024/03/27 05:52:54;;;;;;;0.90;0.30;;;;;;;5.82;100.00;96088.22;4976220;28;20029;-61
2024/03/27 05:55:22;;;;;;;0.98;0.30;;;;;;;5.81;100.00;96084.06;4995031;28;20657;-60
2024/03/27 05:57:47;;;;;;;0.80;0.20;;;;;;;5.72;100.00;96088.50;4984264;28;20038;-63
2024/03/27 06:00:14;;;;;;;0.65;0.30;;;;;;;5.69;100.00;96086.25;4991554;28;20762;-64
2024/03/27 06:02:39;;;;;;;0.95;0.30;;;;;;;5.70;100.00;96112.88;4971601;28;20124;-63
2024/03/27 06:05:05;;;;;;;1.08;0.30;;;;;;;5.76;100.00;96110.38;4999490;28;20105;-60
2024/03/27 06:07:30;;;;;;;0.73;0.20;;;;;;;5.70;100.00;96111.09;4971239;28;20873;-62
2024/03/27 06:09:56;;;;;;;1.05;0.30;;;;;;;5.71;100.00;96111.88;4991186;28;20045;-61
2024/03/27 06:12:22;;;;;;;0.75;0.25;;;;;;;5.70;100.00;96118.03;4976621;28;20026;-61
2024/03/27 06:14:48;;;;;;;2.53;0.57;;;;;;;5.63;100.00;96112.75;4977687;28;20045;-60
2024/03/27 06:17:15;;;;;;;2.75;0.45;;;;;;;5.68;100.00;96132.88;5008035;28;20033;-59
2024/03/27 06:19:41;;;;;;;0.52;0.20;;;;;;;5.67;100.00;96137.22;4995359;28;20044;-60
2024/03/27 06:22:08;;;;;;;1.90;0.35;;;;;;;5.53;100.00;96132.81;4982609;28;20069;-61
2024/03/27 06:24:36;;;;;;;2.50;0.40;;;;;;;5.46;100.00;96135.28;4981850;28;20033;-61
2024/03/27 06:27:04;;;;;;;0.57;0.20;;;;;;;5.53;100.00;96140.53;5026861;28;20030;-61
2024/03/27 06:29:29;;;;;;;1.35;0.30;;;;;;;5.46;100.00;96144.78;4980991;28;20029;-62
2024/03/27 06:31:57;;;;;;;0.93;0.20;;;;;;;5.44;100.00;96131.28;4996985;28;20366;-61
2024/03/27 06:34:22;;;;;;;1.27;0.30;;;;;;;5.27;100.00;96133.97;5000760;28;20030;-62
2024/03/27 06:36:50;;;;;;;1.65;0.28;;;;;;;5.25;100.00;96132.53;5018354;28;20037;-61
2024/03/27 06:39:16;;;;;;;1.02;0.30;;;;;;;5.04;100.00;96141.69;4996349;28;20084;-60
2024/03/27 06:41:42;;;;;;;1.15;0.30;;;;;;;5.04;100.00;96139.13;4997609;28;20489;-61
2024/03/27 06:44:10;;;;;;;0.63;0.22;;;;;;;5.02;100.00;96133.34;5011894;28;20116;-61
2024/03/27 06:46:38;;;;;;;0.45;0.15;;;;;;;5.04;100.00;96146.84;5003119;28;20473;-63
2024/03/27 06:49:19;;;;;;;0.55;0.22;;;;;;;4.90;100.00;96132.91;4991908;28;20571;-61
2024/03/27 06:51:51;;;;;;;0.88;0.30;;;;;;;4.92;100.00;96125.81;4994006;28;20038;-61
2024/03/27 06:54:17;;;;;;;0.85;0.20;;;;;;;4.89;100.00;96120.22;4981840;28;20083;-62
2024/03/27 06:56:43;;;;;;;0.75;0.32;;;;;;;4.67;100.00;96086.53;5019170;28;20054;-63
2024/03/27 06:59:09;;;;;;;0.30;0.20;;;;;;;4.88;100.00;96103.16;4994512;28;20053;-60
2024/03/27 07:01:37;;;;;;;2.67;0.28;;;;;;;4.88;100.00;96118.63;5011390;28;21329;-64
2024/03/27 07:04:05;;;;;;;0.20;0.10;;;;;;;4.85;100.00;96104.28;5013096;28;20022;-62
2024/03/27 07:06:33;;;;;;;1.85;0.30;;;;;;;4.92;100.00;96117.31;4993254;28;20033;-67
2024/03/27 07:08:58;;;;;;;0.50;0.20;;;;;;;4.53;100.00;96064.91;5011839;28;20033;-60
2024/03/27 07:11:23;;;;;;;0.88;0.30;;;;;;;4.85;100.00;96116.38;5028691;28;20037;-65
2024/03/27 07:13:51;;;;;;;1.15;0.30;;;;;;;4.66;100.00;96077.22;4992661;28;20069;-62
2024/03/27 07:16:17;;;;;;;0.88;0.30;;;;;;;4.85;100.00;96113.81;5009703;28;20057;-65
2024/03/27 07:18:42;;;;;;;0.90;0.30;;;;;;;4.82;100.00;96109.81;5015601;28;20447;-62
2024/03/27 07:21:07;;;;;;;1.80;0.30;;;;;;;4.60;100.00;96076.13;4999547;28;20081;-62
2024/03/27 07:23:33;;;;;;;1.02;0.30;;;;;;;4.73;100.00;96101.31;4997553;28;20105;-61
2024/03/27 07:26:04;;;;;;;1.00;0.25;;;;;;;4.72;100.00;96102.28;4979907;28;20021;-62
2024/03/27 07:28:30;;;;;;;1.48;0.30;;;;;;;4.68;100.00;96103.59;4988524;28;20042;-63
2024/03/27 07:30:55;;;;;;;1.63;0.40;;;;;;;4.66;100.00;96086.72;5013251;28;20425;-61
2024/03/27 07:33:20;;;;;;;0.50;0.25;;;;;;;4.31;100.00;96032.19;4991674;28;20080;-65
2024/03/27 07:35:46;;;;;;;0.68;0.20;;;;;;;4.69;100.00;96094.09;4973827;28;20037;-62
2024/03/27 07:38:11;;;;;;;0.52;0.22;;;;;;;4.58;100.00;96083.22;4998341;28;20025;-64
2024/03/27 07:40:37;;;;;;;0.20;0.10;;;;;;;4.54;100.00;96081.13;4992666;28;20041;-64
2024/03/27 07:43:02;;;;;;;0.40;0.17;;;;;;;4.32;100.00;96044.91;4997852;28;20022;-62
2024/03/27 07:45:28;;;;;;;0.73;0.30;;;;;;;4.66;100.00;96059.19;5006007;28;20480;-62
2024/03/27 07:47:54;;;;;;;0.80;0.30;;;;;;;4.69;100.00;96073.50;5034783;28;20030;-61
2024/03/27 07:50:19;;;;;;;1.23;0.30;;;;;;;4.65;100.00;96057.59;4980767;28;20235;-62
2024/03/27 07:52:47;;;;;;;1.48;0.50;;;;;;;4.58;100.00;96052.34;4977147;28;20120;-61
2024/03/27 07:55:14;;;;;;;1.35;0.43;;;;;;;4.70;100.00;96055.31;5009070;28;20084;-62
2024/03/27 07:57:45;;;;;;;2.13;0.50;;;;;;;4.63;100.00;96041.50;4990096;28;20064;-61
2024/03/27 08:00:15;;;;;;;1.75;0.52;;;;;;;4.74;100.00;96030.81;5012272;28;20503;-61
2024/03/27 08:02:42;;;;;;;1.17;0.50;;;;;;;4.72;100.00;96032.78;4997793;28;20022;-62
2024/03/27 08:05:10;;;;;;;3.10;0.90;;;;;;;4.78;100.00;96033.84;4996991;28;20030;-61
2024/03/27 08:07:38;;;;;;;1.88;0.47;;;;;;;4.74;100.00;96024.88;4976108;28;20659;-63
2024/03/27 08:10:04;;;;;;;1.60;0.40;;;;;;;4.36;100.00;95986.19;4992835;28;20125;-62
2024/03/27 08:12:34;;;;;;;2.60;0.50;;;;;;;4.71;100.00;96026.03;4975262;28;20022;-62
2024/03/27 08:15:00;;;;;;;1.23;0.50;;;;;;;4.77;100.00;96027.13;4990509;28;20077;-62
2024/03/27 08:17:25;;;;;;;2.30;0.63;;;;;;;4.63;100.00;96023.50;4972088;28;20117;-61
2024/03/27 08:19:56;;;;;;;2.90;0.80;;;;;;;4.53;100.00;96013.44;4992668;28;20041;-64
2024/03/27 08:22:21;;;;;;;2.20;0.60;;;;;;;4.24;100.00;95981.44;5010558;28;20022;-62
2024/03/27 08:24:46;;;;;;;2.55;0.68;;;;;;;4.66;100.00;96028.31;4990783;28;20037;-64
2024/03/27 08:27:12;;;;;;;3.25;0.70;;;;;;;4.76;100.00;96022.94;4996400;28;20034;-60
2024/03/27 08:29:37;;;;;;;2.08;0.70;;;;;;;4.48;100.00;95991.75;4975517;28;20033;-63
2024/03/27 08:32:03;;;;;;;1.77;0.50;;;;;;;4.69;100.00;96016.88;5028099;28;20026;-63
2024/03/27 08:34:31;;;;;;;1.60;0.57;;;;;;;4.68;100.00;96015.28;5030437;28;20030;-61
2024/03/27 08:37:01;;;;;;;1.30;0.45;;;;;;;4.43;100.00;95993.09;5000739;28;20137;-61
2024/03/27 08:39:27;;;;;;;1.92;0.60;;;;;;;4.39;100.00;95971.22;4989475;28;20856;-61
2024/03/27 08:41:54;;;;;;;3.28;0.70;;;;;;;4.60;100.00;95992.97;4986948;28;20026;-62
2024/03/27 08:44:19;;;;;;;1.65;0.45;;;;;;;4.82;100.00;96009.38;4998326;28;20033;-62
2024/03/27 08:46:45;;;;;;;4.28;1.00;;;;;;;4.83;100.00;96013.56;4995072;28;20088;-61
2024/03/27 08:49:13;;;;;;;3.40;1.13;;;;;;;4.94;100.00;96004.63;4996578;28;20042;-62
2024/03/27 08:51:42;;;;;;;3.25;1.08;;;;;;;4.85;100.00;95987.63;4977388;28;20176;-64
2024/03/27 08:54:09;;;;;;;5.65;1.48;;;;;;;4.65;100.00;95961.56;4994282;28;20037;-62
2024/03/27 08:56:35;;;;;;;2.88;0.70;;;;;;;4.89;100.00;96006.91;5027054;28;20061;-62
2024/03/27 08:59:01;;;;;;;1.73;0.52;;;;;;;4.86;100.00;96012.44;4995354;28;20034;-63
2024/03/27 09:01:27;;;;;;;1.98;0.60;;;;;;;4.65;100.00;95980.38;4992517;28;20693;-64
2024/03/27 09:03:52;;;;;;;2.30;0.73;;;;;;;4.45;100.00;95927.75;5028864;28;20099;-64
2024/03/27 09:06:18;;;;;;;3.92;1.08;;;;;;;4.86;100.00;95995.19;5010978;28;20034;-62
2024/03/27 09:08:43;;;;;;;5.93;2.00;;;;;;;4.97;100.00;96007.66;5018014;28;20120;-65
2024/03/27 09:11:09;;;;;;;2.72;0.90;;;;;;;4.75;100.00;95968.06;4996385;28;20411;-63
2024/03/27 09:13:35;;;;;;;4.80;0.93;;;;;;;5.10;100.00;96014.78;5000916;28;20037;-62
2024/03/27 09:16:00;;;;;;;4.95;1.35;;;;;;;5.28;100.00;96021.41;5031111;28;20037;-63
2024/03/27 09:18:26;;;;;;;4.72;1.70;;;;;;;5.29;100.00;96025.59;5006911;28;20030;-64
2024/03/27 09:20:52;;;;;;;10.45;3.85;;;;;;;5.27;100.00;96010.28;5027664;28;20053;-66
2024/03/27 09:23:18;;;;;;;6.88;2.72;;;;;;;5.43;100.00;96024.03;4997448;28;20026;-63
2024/03/27 09:25:57;;;;;;;4.78;1.30;;;;;;;5.53;100.00;96021.97;5001686;28;20157;-61
2024/03/27 09:28:23;;;;;;;4.95;1.67;;;;;;;5.59;100.00;96013.56;4992820;28;20034;-61
2024/03/27 09:30:49;;;;;;;9.25;2.70;;;;;;;5.53;100.00;96011.66;5010677;28;20026;-63
2024/03/27 09:33:17;;;;;;;9.40;3.05;;;;;;;5.56;100.00;96003.59;5032050;28;20030;-63
2024/03/27 09:35:48;;;;;;;11.75;4.28;;;;;;;5.55;100.00;96000.22;4995245;28;20065;-62
2024/03/27 09:38:13;;;;;;;14.65;5.97;;;;;;;5.54;100.00;96008.13;5011136;28;20037;-62
2024/03/27 09:40:54;;;;;;;11.25;4.22;;;;;;;5.50;100.00;96004.31;5026985;28;20030;-60
2024/03/27 09:43:20;;;;;;;2.92;1.00;;;;;;;5.50;100.00;95999.94;4993452;28;20666;-63
2024/03/27 09:45:47;;;;;;;1.52;0.60;;;;;;;5.49;100.00;95997.53;5009669;28;20040;-60
2024/03/27 09:48:15;;;;;;;5.35;1.10;;;;;;;5.61;100.00;96000.50;5021361;28;20030;-63
2024/03/27 09:50:42;;;;;;;4.60;1.52;;;;;;;5.51;100.00;96001.56;4976133;28;20209;-62
2024/03/27 09:53:07;;;;;;;4.45;1.55;;;;;;;5.47;100.00;95997.69;4978107;28;20609;-61
2024/03/27 09:55:37;;;;;;;4.82;1.38;;;;;;;5.44;100.00;95992.94;4992409;28;20038;-60
2024/03/27 09:58:10;;;;;;;2.60;0.93;;;;;;;5.48;100.00;96008.84;5007652;28;20034;-62
2024/03/27 10:00:37;;;;;;;4.72;2.08;;;;;;;5.35;100.00;95991.41;5000963;28;20054;-63
2024/03/27 10:03:05;;;;;;;5.07;2.05;;;;;;;5.42;100.00;96005.19;4997817;28;20030;-62
2024/03/27 10:05:32;;;;;;;5.30;1.80;;;;;;;5.42;100.00;96000.03;5015671;28;20036;-63
2024/03/27 10:07:58;;;;;;;5.25;2.00;;;;;;;5.41;100.00;95988.13;4999706;28;20555;-62
2024/03/27 10:10:23;;;;;;;11.07;4.30;;;;;;;5.16;100.00;95957.41;4996634;28;20038;-62
2024/03/27 10:12:49;;;;;;;7.15;2.20;;;;;;;5.39;100.00;95988.28;4981834;28;20563;-60
2024/03/27 10:15:15;;;;;;;4.93;2.05;;;;;;;5.42;100.00;96002.63;4986334;28;20026;-60
2024/03/27 10:17:42;;;;;;;7.00;2.60;;;;;;;5.36;100.00;95993.00;4993555;28;20034;-61
2024/03/27 10:20:12;;;;;;;8.80;4.40;;;;;;;5.43;100.00;96009.34;4992168;28;20041;-62
2024/03/27 10:22:42;;;;;;;5.03;2.13;;;;;;;5.36;100.00;96006.66;4990733;28;20022;-62
2024/03/27 10:25:09;;;;;;;4.35;1.90;;;;;;;5.37;100.00;96023.75;4996428;28;20040;-62
2024/03/27 10:27:36;;;;;;;5.90;2.85;;;;;;;5.38;100.00;96032.25;4989903;28;20055;-61
2024/03/27 10:30:02;;;;;;;4.50;1.67;;;;;;;5.45;100.00;96028.00;5013017;28;20647;-61
2024/03/27 10:32:30;;;;;;;5.10;1.77;;;;;;;5.42;100.00;96028.38;4994527;28;20624;-62
2024/03/27 10:34:56;;;;;;;3.38;0.90;;;;;;;5.24;100.00;96005.50;4996571;28;20172;-63
2024/03/27 10:37:22;;;;;;;4.90;1.10;;;;;;;5.50;100.00;96036.03;4992727;28;20030;-62
2024/03/27 10:39:54;;;;;;;10.48;3.80;;;;;;;5.37;100.00;96038.41;4998019;28;20038;-62
2024/03/27 10:42:27;;;;;;;3.90;1.20;;;;;;;5.42;100.00;96040.44;4977648;28;20100;-63
2024/03/27 10:44:59;;;;;;;4.57;1.40;;;;;;;5.29;100.00;96010.13;4988788;28;20030;-61
2024/03/27 10:47:33;;;;;;;4.20;1.40;;;;;;;5.36;100.00;96040.16;4998242;28;20747;-62
2024/03/27 10:50:01;;;;;;;6.38;2.45;;;;;;;5.36;100.00;96045.31;4993048;28;20054;-62
2024/03/27 10:52:31;;;;;;;3.55;1.33;;;;;;;5.40;100.00;96056.06;4975914;28;20030;-64
2024/03/27 10:54:56;;;;;;;3.65;1.30;;;;;;;5.37;100.00;96051.28;5007470;28;20121;-62
2024/03/27 10:57:24;;;;;;;3.25;1.00;;;;;;;5.34;100.00;96049.84;4995781;28;20090;-62
2024/03/27 10:59:50;;;;;;;3.42;1.23;;;;;;;5.44;100.00;96059.09;4979774;28;20439;-61
2024/03/27 11:02:18;;;;;;;4.25;1.58;;;;;;;5.48;100.00;96070.69;4980691;28;20060;-62
2024/03/27 11:04:58;;;;;;;3.28;1.10;;;;;;;5.26;100.00;96024.16;4979063;28;20029;-61
2024/03/27 11:07:32;;;;;;;4.30;1.70;;;;;;;5.55;100.00;96067.22;5026247;28;20026;-63
2024/03/27 11:09:57;;;;;;;4.20;1.35;;;;;;;5.53;100.00;96058.88;4992203;28;20030;-64
2024/03/27 11:12:24;;;;;;;5.55;2.25;;;;;;;5.41;100.00;96038.88;5023751;28;20041;-62
2024/03/27 11:14:51;;;;;;;5.40;1.85;;;;;;;5.62;100.00;96075.03;5026922;28;20025;-62
2024/03/27 11:17:26;;;;;;;5.20;2.33;;;;;;;5.67;100.00;96082.28;5029479;28;20903;-63
2024/03/27 11:19:57;;;;;;;9.55;3.63;;;;;;;5.47;100.00;96045.88;4996725;28;20030;-61
2024/03/27 11:22:23;;;;;;;6.70;2.80;;;;;;;5.70;100.00;96075.00;4991450;28;20040;-62
2024/03/27 11:24:50;;;;;;;5.28;2.10;;;;;;;5.51;100.00;96036.81;5026122;28;20793;-61
2024/03/27 11:27:26;;;;;;;3.92;1.35;;;;;;;5.74;100.00;96078.81;4993184;28;20124;-63
2024/03/27 11:30:00;;;;;;;4.00;1.27;;;;;;;5.87;100.00;96080.78;5013785;28;20569;-62
2024/03/27 11:32:37;;;;;;;5.57;2.50;;;;;;;5.93;100.00;96080.09;4982216;28;20033;-61